createdAt,value
2022-08-09T00:01:04.797Z,2.80
2022-08-09T00:04:10.002Z,3.47
2022-08-09T00:06:23.653Z,3.17
2022-08-09T00:08:49.999Z,4.28
2022-08-09T00:11:25.077Z,3.00
2022-08-09T00:13:54.013Z,3.78
2022-08-09T00:16:26.522Z,2.83
2022-08-09T00:19:03.271Z,3.03
2022-08-09T00:21:35.863Z,2.95
2022-08-09T00:24:02.117Z,3.10
2022-08-09T00:26:30.113Z,3.97
2022-08-09T00:28:59.119Z,3.58
2022-08-09T00:31:57.018Z,2.80
2022-08-09T00:34:12.374Z,2.97
2022-08-09T00:36:40.119Z,3.17
2022-08-09T00:39:17.045Z,3.08
2022-08-09T00:44:14.246Z,3.05
2022-08-09T00:44:40.421Z,2.72
2022-08-09T00:47:07.661Z,3.33
2022-08-09T00:49:33.884Z,2.75
2022-08-09T00:52:02.174Z,3.22
2022-08-09T00:54:36.110Z,2.90
2022-08-09T00:57:02.683Z,2.80
2022-08-09T00:59:41.620Z,3.63
2022-08-09T01:02:12.400Z,3.17
2022-08-09T01:04:39.340Z,3.08
2022-08-09T01:07:12.340Z,6.00
2022-08-09T01:09:40.251Z,3.20
2022-08-09T01:12:06.511Z,3.78
2022-08-09T01:14:34.804Z,2.97
2022-08-09T01:17:01.037Z,3.10
2022-08-09T01:19:42.374Z,2.95
2022-08-09T01:22:12.290Z,3.47
2022-08-09T01:24:39.062Z,2.90
2022-08-09T01:27:05.451Z,3.25
2022-08-09T01:29:41.283Z,3.85
2022-08-09T01:32:31.624Z,3.42
2022-08-09T01:38:05.738Z,3.20
2022-08-09T01:40:23.269Z,2.88
2022-08-09T01:42:54.936Z,3.55
2022-08-09T01:45:22.241Z,2.65
2022-08-09T01:47:49.709Z,3.50
2022-08-09T01:50:16.110Z,2.53
2022-08-09T01:52:43.502Z,2.97
2022-08-09T01:55:09.773Z,2.75
2022-08-09T01:57:40.209Z,3.40
2022-08-09T02:00:34.439Z,5.30
2022-08-09T02:02:58.131Z,3.72
2022-08-09T02:05:37.684Z,3.20
2022-08-09T02:10:51.652Z,4.15
2022-08-09T02:13:18.085Z,2.95
2022-08-09T02:15:49.597Z,3.90
2022-08-09T02:18:16.737Z,3.40
2022-08-09T02:20:43.210Z,2.88
2022-08-09T02:23:10.030Z,3.75
2022-08-09T02:25:42.641Z,3.45
2022-08-09T02:28:12.015Z,3.60
2022-08-09T02:30:44.276Z,3.30
2022-08-09T02:33:14.250Z,3.65
2022-08-09T02:36:02.044Z,3.28
2022-08-09T02:38:28.652Z,3.83
2022-08-09T02:40:56.144Z,4.27
2022-08-09T02:43:23.391Z,3.80
2022-08-09T02:45:55.026Z,3.92
2022-08-09T02:48:31.131Z,3.58
2022-08-09T02:50:57.991Z,3.92
2022-08-09T02:53:26.079Z,3.70
2022-08-09T02:55:57.722Z,3.47
2022-08-09T02:58:35.252Z,3.80
2022-08-09T03:01:04.427Z,3.28
2022-08-09T03:03:37.154Z,3.45
2022-08-09T03:06:18.623Z,3.85
2022-08-09T03:08:47.709Z,3.28
2022-08-09T03:11:15.409Z,3.40
2022-08-09T03:14:01.959Z,3.28
2022-08-09T03:16:28.223Z,2.65
2022-08-09T03:18:55.747Z,3.47
2022-08-09T03:21:25.688Z,4.10
2022-08-09T03:24:04.398Z,3.00
2022-08-09T03:26:32.024Z,4.27
2022-08-09T03:28:58.495Z,3.78
2022-08-09T03:31:24.764Z,3.58
2022-08-09T03:33:53.982Z,3.85
2022-08-09T03:36:21.269Z,3.33
2022-08-09T03:38:54.088Z,3.67
2022-08-09T03:41:20.339Z,3.90
2022-08-09T03:44:08.554Z,3.75
2022-08-09T03:46:35.391Z,3.87
2022-08-09T03:49:04.025Z,3.65
2022-08-09T03:51:57.644Z,3.25
2022-08-09T03:54:29.230Z,3.45
2022-08-09T03:56:57.802Z,3.80
2022-08-09T03:59:42.841Z,3.67
2022-08-09T04:02:09.655Z,4.10
2022-08-09T04:04:38.896Z,3.40
2022-08-09T04:07:05.312Z,4.20
2022-08-09T04:09:47.912Z,4.13
2022-08-09T04:12:30.759Z,4.05
2022-08-09T04:15:01.940Z,3.85
2022-08-09T04:17:37.512Z,5.07
2022-08-09T04:20:05.568Z,2.80
2022-08-09T04:22:33.766Z,2.97
2022-08-09T04:25:00.138Z,4.03
2022-08-09T04:27:28.991Z,3.13
2022-08-09T04:29:55.457Z,3.55
2022-08-09T04:32:23.684Z,3.25
2022-08-09T04:35:03.637Z,3.15
2022-08-09T04:37:42.174Z,3.42
2022-08-09T04:40:19.658Z,3.15
2022-08-09T04:42:59.021Z,4.03
2022-08-09T04:45:25.315Z,4.13
2022-08-09T04:48:01.205Z,3.80
2022-08-09T04:50:33.645Z,3.65
2022-08-09T04:53:04.154Z,3.88
2022-08-09T04:55:38.934Z,3.42
2022-08-09T04:58:09.505Z,4.13
2022-08-09T05:00:36.234Z,2.92
2022-08-09T05:03:12.821Z,3.45
2022-08-09T05:05:51.750Z,2.65
2022-08-09T05:10:44.806Z,3.78
2022-08-09T05:13:11.033Z,3.33
2022-08-09T05:15:43.054Z,3.20
2022-08-09T05:18:38.170Z,3.13
2022-08-09T05:21:13.413Z,3.67
2022-08-09T05:23:53.618Z,4.65
2022-08-09T05:26:37.593Z,4.63
2022-08-09T05:29:17.655Z,3.80
2022-08-09T05:31:47.396Z,3.72
2022-08-09T05:34:17.402Z,4.10
2022-08-09T05:36:43.951Z,3.08
2022-08-09T05:39:13.790Z,3.63
2022-08-09T05:41:54.955Z,3.83
2022-08-09T05:44:22.235Z,4.30
2022-08-09T05:46:55.495Z,4.28
2022-08-09T05:49:33.855Z,4.07
2022-08-09T05:52:07.944Z,4.32
2022-08-09T05:54:34.172Z,4.55
2022-08-09T05:57:00.437Z,4.50
2022-08-09T05:59:26.915Z,4.78
2022-08-09T06:01:53.165Z,5.43
2022-08-09T06:04:25.084Z,3.42
2022-08-09T06:07:01.350Z,4.45
2022-08-09T06:09:54.063Z,4.00
2022-08-09T06:12:13.835Z,3.38
2022-08-09T06:14:40.057Z,5.28
2022-08-09T06:17:09.363Z,3.15
2022-08-09T06:19:36.484Z,4.43
2022-08-09T06:22:03.258Z,3.95
2022-08-09T06:24:29.704Z,3.92
2022-08-09T06:26:57.745Z,3.78
2022-08-09T06:29:24.257Z,3.30
2022-08-09T06:32:52.936Z,3.55
2022-08-09T06:34:39.236Z,3.97
2022-08-09T06:37:05.476Z,3.42
2022-08-09T06:39:49.238Z,3.80
2022-08-09T06:42:24.877Z,3.90
2022-08-09T06:44:54.878Z,3.95
2022-08-09T06:47:23.787Z,4.40
2022-08-09T06:50:14.729Z,3.50
2022-08-09T06:52:36.426Z,3.35
2022-08-09T06:55:10.119Z,3.40
2022-08-09T06:58:01.626Z,4.22
2022-08-09T07:00:54.310Z,3.33
2022-08-09T07:03:11.520Z,3.15
2022-08-09T07:05:58.256Z,3.33
2022-08-09T07:08:24.709Z,3.80
2022-08-09T07:10:51.138Z,3.35
2022-08-09T07:13:27.486Z,3.72
2022-08-09T07:16:42.707Z,3.30
2022-08-09T07:18:41.045Z,3.58
2022-08-09T07:21:09.185Z,3.90
2022-08-09T07:23:36.488Z,3.97
2022-08-09T07:26:22.573Z,3.60
2022-08-09T07:29:08.917Z,3.53
2022-08-09T07:31:38.122Z,3.72
2022-08-09T07:34:05.033Z,4.75
2022-08-09T07:36:31.277Z,4.65
2022-08-09T07:39:00.937Z,3.90
2022-08-09T07:41:33.164Z,2.85
2022-08-09T07:44:05.220Z,4.30
2022-08-09T07:46:31.503Z,3.65
2022-08-09T07:48:59.584Z,2.95
2022-08-09T07:52:04.647Z,3.15
2022-08-09T07:54:12.956Z,3.60
2022-08-09T07:56:49.349Z,3.25
2022-08-09T07:59:34.218Z,2.85
2022-08-09T08:02:02.578Z,3.83
2022-08-09T08:04:32.087Z,3.00
2022-08-09T08:09:42.894Z,2.92
2022-08-09T08:12:27.440Z,3.58
2022-08-09T08:14:55.153Z,3.75
2022-08-09T08:17:35.007Z,2.97
2022-08-09T08:20:12.531Z,3.40
2022-08-09T08:22:39.797Z,2.58
2022-08-09T08:25:09.317Z,3.03
2022-08-09T08:27:40.554Z,3.17
2022-08-09T08:30:08.275Z,3.65
2022-08-09T08:32:52.939Z,3.35
2022-08-09T08:35:22.424Z,2.92
2022-08-09T08:38:01.956Z,2.85
2022-08-09T08:40:35.320Z,2.67
2022-08-09T08:43:03.304Z,3.17
2022-08-09T08:45:50.738Z,2.30
2022-08-09T08:48:19.854Z,2.20
2022-08-09T08:50:49.268Z,3.38
2022-08-09T08:53:22.046Z,3.10
2022-08-09T08:55:48.669Z,2.53
2022-08-09T08:58:18.919Z,2.20
2022-08-09T09:00:54.464Z,1.95
2022-08-09T09:06:05.203Z,2.20
2022-08-09T09:08:32.137Z,3.15
2022-08-09T09:11:07.507Z,2.55
2022-08-09T09:13:42.226Z,3.00
2022-08-09T09:16:29.829Z,1.90
2022-08-09T09:19:21.592Z,1.98
2022-08-09T09:21:46.861Z,2.30
2022-08-09T09:24:20.550Z,2.53
2022-08-09T09:26:48.214Z,2.83
2022-08-09T09:29:17.008Z,3.97
2022-08-09T09:32:03.291Z,2.70
2022-08-09T09:34:30.960Z,2.88
2022-08-09T09:36:59.890Z,2.75
2022-08-09T09:39:42.632Z,2.83
2022-08-09T09:42:12.643Z,2.67
2022-08-09T09:44:39.141Z,2.85
2022-08-09T09:47:06.356Z,3.00
2022-08-09T09:50:07.293Z,3.00
2022-08-09T09:52:36.644Z,2.65
2022-08-09T09:55:16.505Z,3.03
2022-08-09T09:58:03.460Z,2.42
2022-08-09T10:02:58.231Z,2.53
2022-08-09T10:05:26.987Z,2.85
2022-08-09T10:08:27.698Z,3.20
2022-08-09T10:10:54.870Z,2.42
2022-08-09T10:13:24.549Z,3.53
2022-08-09T10:16:55.767Z,3.53
2022-08-09T10:18:54.815Z,4.07
2022-08-09T10:21:21.061Z,3.22
2022-08-09T10:23:47.433Z,2.72
2022-08-09T10:26:19.555Z,2.20
2022-08-09T10:28:49.115Z,3.28
2022-08-09T10:34:32.360Z,2.20
2022-08-09T10:36:59.645Z,2.78
2022-08-09T10:39:28.331Z,3.15
2022-08-09T10:41:55.222Z,3.08
2022-08-09T10:44:21.670Z,2.45
2022-08-09T10:46:55.766Z,3.05
2022-08-09T10:49:50.478Z,2.58
2022-08-09T10:52:13.596Z,2.42
2022-08-09T10:54:46.916Z,2.15
2022-08-09T10:57:16.395Z,3.08
2022-08-09T10:59:57.813Z,2.25
2022-08-09T11:03:51.203Z,2.35
2022-08-09T11:05:25.451Z,2.60
2022-08-09T11:07:59.238Z,2.55
2022-08-09T11:10:26.735Z,2.63
2022-08-09T11:15:24.069Z,2.28
2022-08-09T11:17:53.680Z,3.15
2022-08-09T11:20:23.510Z,2.05
2022-08-09T11:22:56.731Z,1.90
2022-08-09T11:25:25.887Z,2.72
2022-08-09T11:28:14.548Z,2.10
2022-08-09T11:30:48.942Z,2.35
2022-08-09T11:33:15.559Z,1.88
2022-08-09T11:35:49.539Z,3.05
2022-08-09T11:38:17.881Z,2.50
2022-08-09T11:40:44.719Z,2.78
2022-08-09T11:43:11.052Z,3.63
2022-08-09T11:45:42.985Z,2.53
2022-08-09T11:48:18.848Z,2.83
2022-08-09T11:50:56.582Z,2.00
2022-08-09T11:54:01.435Z,1.90
2022-08-09T11:56:41.298Z,2.35
2022-08-09T11:59:09.329Z,2.92
2022-08-09T12:02:15.840Z,2.40
2022-08-09T12:04:28.781Z,2.55
2022-08-09T12:07:03.369Z,2.55
2022-08-09T12:09:34.192Z,2.53
2022-08-09T12:12:02.340Z,3.10
2022-08-09T12:17:20.981Z,2.50
2022-08-09T12:20:01.387Z,3.40
2022-08-09T12:22:27.707Z,2.90
2022-08-09T12:24:55.563Z,2.80
2022-08-09T12:29:14.626Z,2.70
2022-08-09T12:30:36.132Z,2.80
2022-08-09T12:32:57.190Z,2.88
2022-08-09T12:35:24.138Z,2.78
2022-08-09T12:37:54.105Z,2.67
2022-08-09T12:40:20.475Z,2.78
2022-08-09T12:42:50.139Z,2.60
2022-08-09T12:45:34.178Z,3.03
2022-08-09T12:48:03.585Z,2.22
2022-08-09T12:50:29.928Z,2.10
2022-08-09T12:53:07.884Z,2.08
2022-08-09T12:56:14.046Z,2.05
2022-08-09T12:58:24.117Z,2.30
2022-08-09T13:00:53.792Z,2.30
2022-08-09T13:03:24.506Z,2.10
2022-08-09T13:06:14.508Z,3.17
2022-08-09T13:08:43.568Z,2.50
2022-08-09T13:11:22.918Z,2.75
2022-08-09T13:14:41.251Z,2.47
2022-08-09T13:16:37.014Z,2.72
2022-08-09T13:19:03.347Z,2.25
2022-08-09T13:23:00.687Z,2.17
2022-08-09T13:24:44.618Z,3.47
2022-08-09T13:27:08.525Z,2.08
2022-08-09T13:30:02.747Z,2.35
2022-08-09T13:32:27.503Z,2.63
2022-08-09T13:34:54.023Z,2.58
2022-08-09T13:37:51.168Z,2.08
2022-08-09T13:41:50.735Z,1.85
2022-08-09T13:42:53.104Z,2.65
2022-08-09T13:45:19.873Z,2.78
2022-08-09T13:47:49.176Z,2.65
2022-08-09T13:50:31.082Z,2.28
2022-08-09T13:52:58.117Z,2.30
2022-08-09T13:55:24.378Z,2.55
2022-08-09T13:57:58.078Z,1.75
2022-08-09T14:00:28.550Z,2.28
2022-08-09T14:03:16.604Z,2.80
2022-08-09T14:05:58.863Z,2.00
2022-08-09T14:08:28.279Z,1.83
2022-08-09T14:10:54.805Z,3.45
2022-08-09T14:13:27.731Z,2.17
2022-08-09T14:16:10.550Z,2.78
2022-08-09T14:18:37.641Z,1.85
2022-08-09T14:21:03.972Z,3.30
2022-08-09T14:23:40.710Z,2.72
2022-08-09T14:26:18.855Z,2.70
2022-08-09T14:28:45.086Z,3.08
2022-08-09T14:31:11.732Z,2.17
2022-08-09T14:33:38.522Z,2.15
2022-08-09T14:36:19.977Z,2.33
2022-08-09T14:38:47.159Z,2.03
2022-08-09T14:41:34.617Z,2.38
2022-08-09T14:44:06.254Z,2.05
2022-08-09T14:46:54.265Z,2.15
2022-08-09T14:49:19.534Z,2.00
2022-08-09T14:51:50.032Z,1.88
2022-08-09T14:54:16.412Z,2.38
2022-08-09T14:56:57.871Z,1.90
2022-08-09T14:59:25.574Z,1.70
2022-08-09T15:01:53.595Z,2.30
2022-08-09T15:04:20.030Z,1.83
2022-08-09T15:06:50.282Z,2.40
2022-08-09T15:10:03.655Z,2.17
2022-08-09T15:12:04.025Z,4.43
2022-08-09T15:14:33.906Z,2.15
2022-08-09T15:19:31.078Z,1.83
2022-08-09T15:22:03.018Z,2.10
2022-08-09T15:24:29.636Z,2.25
2022-08-09T15:26:56.178Z,2.28
2022-08-09T15:30:58.706Z,1.98
2022-08-09T15:32:28.986Z,2.40
2022-08-09T15:34:56.448Z,2.20
2022-08-09T15:37:23.364Z,1.80
2022-08-09T15:39:54.746Z,1.70
2022-08-09T15:42:21.912Z,2.03
2022-08-09T15:44:48.239Z,1.83
2022-08-09T15:47:22.759Z,1.70
2022-08-09T15:50:03.437Z,2.13
2022-08-09T15:52:30.885Z,2.63
2022-08-09T15:54:57.750Z,1.73
2022-08-09T15:57:35.933Z,2.72
2022-08-09T16:00:13.857Z,1.80
2022-08-09T16:02:41.211Z,1.92
2022-08-09T16:05:07.723Z,2.17
2022-08-09T16:07:38.831Z,2.15
2022-08-09T16:10:06.125Z,2.15
2022-08-09T16:12:37.640Z,2.67
2022-08-09T16:16:10.664Z,2.53
2022-08-09T16:18:02.921Z,1.98
2022-08-09T16:20:30.389Z,1.98
2022-08-09T16:22:56.755Z,2.22
2022-08-09T16:25:39.348Z,1.70
2022-08-09T16:28:07.019Z,2.10
2022-08-09T16:30:33.289Z,2.00
2022-08-09T16:32:59.540Z,1.67
2022-08-09T16:35:56.010Z,1.65
2022-08-09T16:38:14.014Z,2.10
2022-08-09T16:40:44.478Z,1.63
2022-08-09T16:43:12.010Z,1.42
2022-08-09T16:45:44.103Z,2.25
2022-08-09T16:48:39.806Z,2.22
2022-08-09T16:50:59.314Z,1.95
2022-08-09T16:53:32.332Z,2.40
2022-08-09T16:56:06.039Z,2.03
2022-08-09T16:58:35.630Z,1.63
2022-08-09T17:01:02.340Z,3.17
2022-08-09T17:03:28.642Z,1.85
2022-08-09T17:06:07.278Z,2.13
2022-08-09T17:08:43.455Z,1.90
2022-08-09T17:11:15.276Z,2.08
2022-08-09T17:13:41.605Z,1.50
2022-08-09T17:16:11.646Z,1.67
2022-08-09T17:18:38.592Z,1.60
2022-08-09T17:21:05.177Z,1.60
2022-08-09T17:24:21.040Z,1.65
2022-08-09T17:26:31.328Z,1.73
2022-08-09T17:28:57.970Z,2.35
2022-08-09T17:31:25.407Z,1.75
2022-08-09T17:33:56.324Z,2.40
2022-08-09T17:36:25.969Z,1.92
2022-08-09T17:38:52.734Z,2.20
2022-08-09T17:41:38.828Z,1.80
2022-08-09T17:44:38.037Z,3.15
2022-08-09T17:46:55.651Z,2.17
2022-08-09T17:49:23.884Z,1.77
2022-08-09T17:51:50.145Z,2.20
2022-08-09T17:54:16.385Z,2.45
2022-08-09T17:56:43.465Z,1.88
2022-08-09T17:59:11.718Z,1.63
2022-08-09T18:02:07.693Z,3.47
2022-08-09T18:04:28.344Z,2.97
2022-08-09T18:06:56.021Z,2.13
2022-08-09T18:09:22.314Z,1.58
2022-08-09T18:12:10.124Z,2.55
2022-08-09T18:14:34.783Z,2.08
2022-08-09T18:17:02.282Z,1.85
2022-08-09T18:21:00.059Z,1.70
2022-08-09T18:22:17.188Z,1.83
2022-08-09T18:24:43.654Z,2.00
2022-08-09T18:27:13.671Z,2.78
2022-08-09T18:30:41.573Z,2.17
2022-08-09T18:32:31.598Z,1.73
2022-08-09T18:34:58.150Z,2.33
2022-08-09T18:37:48.940Z,2.17
2022-08-09T18:40:11.855Z,2.45
2022-08-09T18:42:38.777Z,1.75
2022-08-09T18:45:10.102Z,1.65
2022-08-09T18:47:48.026Z,2.78
2022-08-09T18:50:14.846Z,2.00
2022-08-09T18:52:41.926Z,2.33
2022-08-09T18:55:13.552Z,3.03
2022-08-09T18:57:43.466Z,1.90
2022-08-09T19:00:11.036Z,1.48
2022-08-09T19:02:37.521Z,2.15
2022-08-09T19:05:19.540Z,2.38
2022-08-09T19:07:59.233Z,1.80
2022-08-09T19:10:37.598Z,2.60
2022-08-09T19:13:19.841Z,1.92
2022-08-09T19:15:49.243Z,1.98
2022-08-09T19:18:17.242Z,2.22
2022-08-09T19:20:58.902Z,2.00
2022-08-09T19:24:32.637Z,2.22
2022-08-09T19:26:13.253Z,2.67
2022-08-09T19:28:42.551Z,2.83
2022-08-09T19:31:14.938Z,2.50
2022-08-09T19:33:42.933Z,2.05
2022-08-09T19:36:11.791Z,2.17
2022-08-09T19:38:39.890Z,2.42
2022-08-09T19:41:06.219Z,2.70
2022-08-09T19:44:00.772Z,2.22
2022-08-09T19:46:35.106Z,2.10
2022-08-09T19:50:07.318Z,2.10
2022-08-09T19:51:55.813Z,2.10
2022-08-09T19:54:22.561Z,2.17
2022-08-09T19:56:51.277Z,2.17
2022-08-09T19:59:39.746Z,1.80
2022-08-09T20:02:29.328Z,1.80
2022-08-09T20:04:54.873Z,2.20
2022-08-09T20:07:22.595Z,1.80
2022-08-09T20:09:48.996Z,2.20
2022-08-09T20:12:27.429Z,1.80
2022-08-09T20:15:01.541Z,2.42
2022-08-09T20:17:41.657Z,1.73
2022-08-09T20:20:15.104Z,2.42
2022-08-09T20:22:44.557Z,2.03
2022-08-09T20:25:12.579Z,2.20
2022-08-09T20:27:39.073Z,3.08
2022-08-09T20:30:06.617Z,2.60
2022-08-09T20:32:33.610Z,2.72
2022-08-09T20:35:01.781Z,1.83
2022-08-09T20:38:19.578Z,2.17
2022-08-09T20:40:19.037Z,1.73
2022-08-09T20:43:00.442Z,2.28
2022-08-09T20:45:57.827Z,2.25
2022-08-09T20:48:25.432Z,1.90
2022-08-09T20:50:57.897Z,2.10
2022-08-09T20:53:37.509Z,1.75
2022-08-09T20:56:04.750Z,2.83
2022-08-09T20:58:32.559Z,2.72
2022-08-09T21:01:13.632Z,1.70
2022-08-09T21:05:48.528Z,1.52
2022-08-09T21:06:31.803Z,2.00
2022-08-09T21:08:58.053Z,2.00
2022-08-09T21:14:11.187Z,1.92
2022-08-09T21:16:38.017Z,2.00
2022-08-09T21:20:18.639Z,1.92
2022-08-09T21:21:56.532Z,2.05
2022-08-09T21:24:28.417Z,2.50
2022-08-09T21:26:55.338Z,2.03
2022-08-09T21:29:22.635Z,1.80
2022-08-09T21:31:49.843Z,1.67
2022-08-09T21:34:28.759Z,2.30
2022-08-09T21:39:41.432Z,1.70
2022-08-09T21:42:10.194Z,2.08
2022-08-09T21:44:37.203Z,2.97
2022-08-09T21:47:04.214Z,2.83
2022-08-09T21:49:40.054Z,2.00
2022-08-09T21:52:14.743Z,1.70
2022-08-09T21:54:46.144Z,2.05
2022-08-09T21:57:37.847Z,1.38
2022-08-09T21:59:58.898Z,2.40
2022-08-09T22:02:35.970Z,2.78
2022-08-09T22:05:16.380Z,3.25
2022-08-09T22:07:52.146Z,1.80
2022-08-09T22:10:23.365Z,3.22
2022-08-09T22:12:50.342Z,1.65
2022-08-09T22:15:16.957Z,2.63
2022-08-09T22:17:46.524Z,2.28
2022-08-09T22:20:21.509Z,2.92
2022-08-09T22:22:48.615Z,1.75
2022-08-09T22:26:08.562Z,2.20
2022-08-09T22:28:01.197Z,1.77
2022-08-09T22:30:33.614Z,1.98
2022-08-09T22:32:59.922Z,1.98
2022-08-09T22:36:01.272Z,2.17
2022-08-09T22:38:14.720Z,1.98
2022-08-09T22:40:49.244Z,2.22
2022-08-09T22:44:02.606Z,2.63
2022-08-09T22:48:18.481Z,1.70
2022-08-09T22:49:01.760Z,3.67
2022-08-09T22:51:38.323Z,1.58
2022-08-09T22:54:04.803Z,1.67
2022-08-09T22:56:34.703Z,2.28
2022-08-09T22:59:00.980Z,2.42
2022-08-09T23:01:32.479Z,2.90
2022-08-09T23:04:03.331Z,2.38
2022-08-09T23:06:35.118Z,2.38
2022-08-09T23:09:02.163Z,2.15
2022-08-09T23:11:28.423Z,1.92
2022-08-09T23:13:54.674Z,2.13
2022-08-09T23:16:20.986Z,2.55
2022-08-09T23:18:47.241Z,1.98
2022-08-09T23:21:13.546Z,2.78
2022-08-09T23:23:40.127Z,1.85
2022-08-09T23:26:06.357Z,1.80
2022-08-09T23:28:32.585Z,3.03
2022-08-09T23:30:58.874Z,3.53
2022-08-09T23:33:25.105Z,3.85
2022-08-09T23:36:04.456Z,2.53
2022-08-09T23:38:33.470Z,2.30
2022-08-09T23:40:59.769Z,2.38
2022-08-09T23:43:26.027Z,2.17
2022-08-09T23:45:52.274Z,2.90
2022-08-09T23:48:18.501Z,2.55
2022-08-09T23:50:44.814Z,2.75
2022-08-09T23:53:11.056Z,2.20
2022-08-09T23:55:38.684Z,2.00
2022-08-09T23:58:10.368Z,2.25
